Time;durP1;ratioP1;P1;durP2;ratioP2;P2;SDS_P1;SDS_P2;PMS_P1;PMS_P2;Temp;Humidity;BMP_temperature;BMP_pressure;BME280_temperature;BME280_humidity;BME280_pressure;Samples;Min_cycle;Max_cycle;Signal;HPM_P1;HPM_P2
2022/12/21 00:01:38;;;;;;;7.57;3.00;;;;;;;;;;5034467;28;20064;-78
2022/12/21 00:04:04;;;;;;;8.75;2.92;;;;;;;;;;5032675;28;20021;-78
2022/12/21 00:06:35;;;;;;;13.52;3.33;;;;;;;;;;5013694;28;20037;-78
2022/12/21 00:09:02;;;;;;;9.32;3.88;;;;;;;;;;5033063;28;20034;-78
2022/12/21 00:11:28;;;;;;;9.38;3.63;;;;;;;;;;5030262;28;20030;-79
2022/12/21 00:13:58;;;;;;;7.85;2.58;;;;;;;;;;5035196;28;20435;-79
2022/12/21 00:16:26;;;;;;;6.80;2.28;;;;;;;;;;5017367;28;20108;-78
2022/12/21 00:18:52;;;;;;;6.93;2.50;;;;;;;;;;5031466;28;20364;-79
2022/12/21 00:21:18;;;;;;;7.43;2.58;;;;;;;;;;5018349;28;20435;-78
2022/12/21 00:23:45;;;;;;;12.65;3.38;;;;;;;;;;5031307;28;20072;-79
2022/12/21 00:26:12;;;;;;;11.05;3.22;;;;;;;;;;5024284;28;20047;-78
2022/12/21 00:28:38;;;;;;;6.80;2.97;;;;;;;;;;5033460;28;20025;-78
2022/12/21 00:31:11;;;;;;;9.02;2.47;;;;;;;;;;5032522;28;20034;-76
2022/12/21 00:33:38;;;;;;;7.60;2.50;;;;;;;;;;5028098;28;20071;-80
2022/12/21 00:36:05;;;;;;;5.70;2.60;;;;;;;;;;5026133;28;20466;-79
2022/12/21 00:38:32;;;;;;;7.93;2.33;;;;;;;;;;5026091;28;20028;-78
2022/12/21 00:41:02;;;;;;;6.47;2.10;;;;;;;;;;5041402;28;20075;-78
2022/12/21 00:43:28;;;;;;;5.93;1.90;;;;;;;;;;5018645;28;20093;-78
2022/12/21 00:45:54;;;;;;;3.90;2.63;;;;;;;;;;5045810;28;20383;-78
2022/12/21 00:48:21;;;;;;;5.15;2.75;;;;;;;;;;5029383;28;20096;-78
2022/12/21 00:50:47;;;;;;;6.82;2.50;;;;;;;;;;5038594;28;20021;-78
2022/12/21 00:53:14;;;;;;;4.25;2.15;;;;;;;;;;5021386;28;20033;-77
2022/12/21 00:55:41;;;;;;;6.05;2.00;;;;;;;;;;5031425;28;20033;-78
2022/12/21 00:58:07;;;;;;;5.07;2.30;;;;;;;;;;5030433;28;20064;-77
2022/12/21 01:00:33;;;;;;;4.50;2.05;;;;;;;;;;5028780;28;20033;-81
2022/12/21 01:02:59;;;;;;;9.30;2.67;;;;;;;;;;5020934;28;20065;-77
2022/12/21 01:05:27;;;;;;;7.85;2.55;;;;;;;;;;5033449;28;20025;-79
2022/12/21 01:07:53;;;;;;;5.80;2.58;;;;;;;;;;5030753;28;20017;-79
2022/12/21 01:10:19;;;;;;;6.28;2.50;;;;;;;;;;5018120;28;20029;-77
2022/12/21 01:12:45;;;;;;;6.45;3.25;;;;;;;;;;5028655;28;20026;-78
2022/12/21 01:15:11;;;;;;;4.60;2.25;;;;;;;;;;5028975;28;20553;-79
2022/12/21 01:17:37;;;;;;;6.22;2.88;;;;;;;;;;5023853;28;20432;-76
2022/12/21 01:20:03;;;;;;;5.10;2.20;;;;;;;;;;5028549;28;20507;-76
2022/12/21 01:22:29;;;;;;;4.03;2.10;;;;;;;;;;5034387;28;20053;-75
2022/12/21 01:24:55;;;;;;;4.18;1.98;;;;;;;;;;5013497;28;20383;-77
2022/12/21 01:27:21;;;;;;;4.32;1.90;;;;;;;;;;5019442;28;20361;-78
2022/12/21 01:29:47;;;;;;;3.95;2.08;;;;;;;;;;5010255;28;20029;-79
2022/12/21 01:32:14;;;;;;;4.10;2.38;;;;;;;;;;5025637;28;20079;-79
2022/12/21 01:34:40;;;;;;;3.10;1.92;;;;;;;;;;5036773;28;20036;-79
2022/12/21 01:37:06;;;;;;;4.25;1.73;;;;;;;;;;5026028;28;20021;-78
2022/12/21 01:39:32;;;;;;;3.70;3.00;;;;;;;;;;5026947;28;20061;-78
2022/12/21 01:41:58;;;;;;;1.73;1.63;;;;;;;;;;5022750;28;20024;-80
2022/12/21 01:44:43;;;;;;;5.13;1.80;;;;;;;;;;5023447;28;20032;-78
2022/12/21 01:47:13;;;;;;;6.60;2.13;;;;;;;;;;5031499;28;20088;-79
2022/12/21 01:49:39;;;;;;;2.72;1.70;;;;;;;;;;5030702;28;20356;-78
2022/12/21 01:52:07;;;;;;;5.50;1.98;;;;;;;;;;5029066;28;20052;-78
2022/12/21 01:54:43;;;;;;;3.67;1.83;;;;;;;;;;5023231;28;20032;-78
2022/12/21 01:57:10;;;;;;;5.53;1.88;;;;;;;;;;5027525;28;20419;-80
2022/12/21 01:59:38;;;;;;;1.95;1.85;;;;;;;;;;5026537;28;20057;-78
2022/12/21 02:02:08;;;;;;;1.98;1.50;;;;;;;;;;5026614;28;20047;-79
2022/12/21 02:04:34;;;;;;;6.95;2.45;;;;;;;;;;5022382;28;20091;-77
2022/12/21 02:07:01;;;;;;;4.97;1.50;;;;;;;;;;5029873;28;20026;-77
2022/12/21 02:09:29;;;;;;;4.25;1.85;;;;;;;;;;5026916;28;20033;-78
2022/12/21 02:11:56;;;;;;;5.47;1.73;;;;;;;;;;5015691;28;20069;-78
2022/12/21 02:14:22;;;;;;;4.15;1.75;;;;;;;;;;5029294;28;20501;-79
2022/12/21 02:16:56;;;;;;;5.40;1.83;;;;;;;;;;5008270;28;20029;-78
2022/12/21 02:19:26;;;;;;;2.40;1.80;;;;;;;;;;5024568;28;20060;-78
2022/12/21 02:22:07;;;;;;;1.95;1.55;;;;;;;;;;5021366;28;20409;-78
2022/12/21 02:24:46;;;;;;;2.13;1.60;;;;;;;;;;5015382;28;20160;-78
2022/12/21 02:27:18;;;;;;;2.65;1.58;;;;;;;;;;5028491;28;20033;-77
2022/12/21 02:29:44;;;;;;;2.65;1.80;;;;;;;;;;5004874;28;20036;-77
2022/12/21 02:32:13;;;;;;;5.20;1.70;;;;;;;;;;5023679;28;20026;-78
2022/12/21 02:34:51;;;;;;;2.47;1.60;;;;;;;;;;5027528;28;20038;-78
2022/12/21 02:37:20;;;;;;;4.85;1.92;;;;;;;;;;5028055;28;20049;-79
2022/12/21 02:40:01;;;;;;;4.70;1.75;;;;;;;;;;5020670;28;20034;-78
2022/12/21 02:45:45;;;;;;;3.33;1.75;;;;;;;;;;5027181;28;20032;-78
2022/12/21 02:48:21;;;;;;;8.75;1.77;;;;;;;;;;5019376;28;20496;-78
2022/12/21 02:50:47;;;;;;;;;;;;;;;;;;5025718;28;20029;-78
2022/12/21 02:53:15;;;;;;;4.95;1.80;;;;;;;;;;5025871;28;19909;-79
2022/12/21 02:55:41;;;;;;;4.22;2.08;;;;;;;;;;5047810;28;20111;-78
2022/12/21 02:58:23;;;;;;;4.25;1.98;;;;;;;;;;5021359;28;20076;-77
2022/12/21 03:00:52;;;;;;;3.60;1.63;;;;;;;;;;5029353;28;20065;-80
2022/12/21 03:03:48;;;;;;;5.82;1.98;;;;;;;;;;5021111;28;20091;-78
2022/12/21 03:06:17;;;;;;;8.10;1.60;;;;;;;;;;5026665;28;20013;-78
2022/12/21 03:09:02;;;;;;;1.80;1.70;;;;;;;;;;5007591;28;20037;-78
2022/12/21 03:11:48;;;;;;;7.18;1.77;;;;;;;;;;5000272;28;20038;-78
2022/12/21 03:14:29;;;;;;;2.03;1.52;;;;;;;;;;5024132;28;20551;-75
2022/12/21 03:17:03;;;;;;;3.83;1.80;;;;;;;;;;5024572;28;20036;-81
2022/12/21 03:19:52;;;;;;;2.60;1.90;;;;;;;;;;5027154;28;20095;-77
2022/12/21 03:22:21;;;;;;;2.40;1.83;;;;;;;;;;4989336;28;20041;-79
2022/12/21 03:24:56;;;;;;;4.40;2.17;;;;;;;;;;5023558;28;20021;-78
2022/12/21 03:27:25;;;;;;;4.75;2.28;;;;;;;;;;5012363;28;20036;-80
2022/12/21 03:29:53;;;;;;;3.30;2.08;;;;;;;;;;5022176;28;20029;-78
2022/12/21 03:32:25;;;;;;;5.82;1.80;;;;;;;;;;5024521;28;20095;-78
2022/12/21 03:34:54;;;;;;;6.00;2.08;;;;;;;;;;5023441;28;20379;-76
2022/12/21 03:37:29;;;;;;;4.75;1.75;;;;;;;;;;5034077;28;20030;-78
2022/12/21 03:39:58;;;;;;;3.67;2.22;;;;;;;;;;5026044;28;20022;-78
2022/12/21 03:42:26;;;;;;;5.45;2.00;;;;;;;;;;5016338;28;20758;-78
2022/12/21 03:44:57;;;;;;;4.35;2.78;;;;;;;;;;5031655;28;20565;-77
2022/12/21 03:47:30;;;;;;;3.90;2.10;;;;;;;;;;5029106;28;20026;-78
2022/12/21 03:49:58;;;;;;;2.45;1.70;;;;;;;;;;5040678;28;20025;-77
2022/12/21 03:52:29;;;;;;;3.42;1.80;;;;;;;;;;5031214;28;20129;-78
2022/12/21 03:55:00;;;;;;;9.23;2.35;;;;;;;;;;5027953;28;20029;-78
2022/12/21 03:57:27;;;;;;;8.30;2.58;;;;;;;;;;5012077;28;20504;-78
2022/12/21 03:59:56;;;;;;;5.88;2.25;;;;;;;;;;5024121;28;20098;-78
2022/12/21 04:02:27;;;;;;;3.42;1.52;;;;;;;;;;5028116;28;20078;-78
2022/12/21 04:04:56;;;;;;;7.35;2.17;;;;;;;;;;5027214;28;20030;-78
2022/12/21 04:07:24;;;;;;;3.92;2.15;;;;;;;;;;5033547;28;20057;-79
2022/12/21 04:10:01;;;;;;;3.53;1.95;;;;;;;;;;5020605;28;20033;-79
2022/12/21 04:12:37;;;;;;;3.15;1.80;;;;;;;;;;5021254;28;20518;-78
2022/12/21 04:15:14;;;;;;;3.40;2.10;;;;;;;;;;5016537;28;20065;-78
2022/12/21 04:17:41;;;;;;;3.78;1.52;;;;;;;;;;5016863;28;20030;-77
2022/12/21 04:20:09;;;;;;;4.22;1.50;;;;;;;;;;5032307;28;20492;-78
2022/12/21 04:28:12;;;;;;;8.48;2.33;;;;;;;;;;5026635;28;20076;-78
2022/12/21 04:30:39;;;;;;;4.15;2.22;;;;;;;;;;5030357;28;20048;-79
2022/12/21 04:33:06;;;;;;;6.03;2.10;;;;;;;;;;5020104;28;20029;-79
2022/12/21 04:35:32;;;;;;;4.63;2.65;;;;;;;;;;5024640;28;20049;-79
2022/12/21 04:37:58;;;;;;;5.05;3.10;;;;;;;;;;5046288;28;20029;-78
2022/12/21 04:40:24;;;;;;;1.98;1.60;;;;;;;;;;5034848;28;20447;-77
2022/12/21 04:42:50;;;;;;;5.25;2.40;;;;;;;;;;5027546;28;20481;-78
2022/12/21 04:45:16;;;;;;;3.15;2.03;;;;;;;;;;5024126;28;20036;-77
2022/12/21 04:47:42;;;;;;;8.32;3.53;;;;;;;;;;5031923;28;20026;-77
2022/12/21 04:50:08;;;;;;;8.07;2.22;;;;;;;;;;5034170;28;20026;-77
2022/12/21 04:52:35;;;;;;;8.25;1.90;;;;;;;;;;5028015;28;20051;-78
2022/12/21 04:55:02;;;;;;;7.47;3.17;;;;;;;;;;5027335;28;20092;-77
2022/12/21 04:57:28;;;;;;;3.90;1.80;;;;;;;;;;5025262;28;20061;-78
2022/12/21 04:59:54;;;;;;;9.55;2.10;;;;;;;;;;5032581;28;20033;-77
2022/12/21 05:02:20;;;;;;;4.05;1.98;;;;;;;;;;5029947;28;20041;-79
2022/12/21 05:04:47;;;;;;;8.38;2.05;;;;;;;;;;5030498;28;20033;-79
2022/12/21 05:07:13;;;;;;;10.60;2.63;;;;;;;;;;5036223;28;20531;-80
2022/12/21 05:09:39;;;;;;;6.43;2.03;;;;;;;;;;5044770;28;20030;-78
2022/12/21 05:12:05;;;;;;;4.65;2.15;;;;;;;;;;5030104;28;20034;-79
2022/12/21 05:14:31;;;;;;;4.40;2.10;;;;;;;;;;5033551;28;20090;-78
2022/12/21 05:16:57;;;;;;;7.90;2.83;;;;;;;;;;5023739;28;20472;-80
2022/12/21 05:19:23;;;;;;;4.80;1.85;;;;;;;;;;5036602;28;20467;-79
2022/12/21 05:21:49;;;;;;;7.13;1.80;;;;;;;;;;5033837;28;20089;-78
2022/12/21 05:24:16;;;;;;;9.13;3.38;;;;;;;;;;5018343;28;20509;-79
2022/12/21 05:26:42;;;;;;;5.88;2.00;;;;;;;;;;5033429;28;20029;-77
2022/12/21 05:29:10;;;;;;;9.00;2.65;;;;;;;;;;5034819;28;20021;-78
2022/12/21 05:31:36;;;;;;;6.63;2.20;;;;;;;;;;5037869;28;20033;-79
2022/12/21 05:34:02;;;;;;;4.88;1.90;;;;;;;;;;5032099;28;20107;-78
2022/12/21 05:36:29;;;;;;;4.28;2.03;;;;;;;;;;5022373;28;20034;-78
2022/12/21 05:38:56;;;;;;;6.45;2.30;;;;;;;;;;5030293;28;20021;-79
2022/12/21 05:41:22;;;;;;;6.40;2.42;;;;;;;;;;5027877;28;20117;-78
2022/12/21 05:43:48;;;;;;;3.35;1.73;;;;;;;;;;5024464;28;20021;-78
2022/12/21 05:46:14;;;;;;;6.88;2.25;;;;;;;;;;5028193;28;20129;-77
2022/12/21 05:48:40;;;;;;;5.35;2.80;;;;;;;;;;5019723;28;20494;-79
2022/12/21 05:51:08;;;;;;;4.88;2.28;;;;;;;;;;5022124;28;20814;-77
2022/12/21 05:53:34;;;;;;;7.10;2.53;;;;;;;;;;5031624;28;20403;-79
2022/12/21 05:56:00;;;;;;;5.22;1.98;;;;;;;;;;5029050;28;20108;-81
2022/12/21 05:58:26;;;;;;;3.55;2.30;;;;;;;;;;5012878;28;20033;-79
2022/12/21 06:00:52;;;;;;;4.85;2.22;;;;;;;;;;5029893;28;20549;-77
2022/12/21 06:03:18;;;;;;;6.57;3.10;;;;;;;;;;5014882;28;20123;-79
2022/12/21 06:05:44;;;;;;;10.05;2.15;;;;;;;;;;5019645;28;20018;-79
2022/12/21 06:08:10;;;;;;;7.60;2.15;;;;;;;;;;5031098;28;20060;-79
2022/12/21 06:10:37;;;;;;;5.55;2.30;;;;;;;;;;5025214;28;20045;-77
2022/12/21 06:13:04;;;;;;;10.35;2.47;;;;;;;;;;5011618;28;20030;-78
2022/12/21 06:15:30;;;;;;;4.88;2.00;;;;;;;;;;5011561;28;20038;-78
2022/12/21 06:18:05;;;;;;;7.28;2.72;;;;;;;;;;5105871;27;20445;-79
2022/12/21 06:20:32;;;;;;;5.55;2.20;;;;;;;;;;5099625;28;20500;-79
2022/12/21 06:22:58;;;;;;;7.32;2.60;;;;;;;;;;5107379;28;20024;-78
2022/12/21 06:25:25;;;;;;;5.95;2.58;;;;;;;;;;5098174;28;20020;-78
2022/12/21 06:27:51;;;;;;;9.32;2.17;;;;;;;;;;5096641;28;20040;-78
2022/12/21 06:30:17;;;;;;;5.40;2.17;;;;;;;;;;5098869;28;20524;-79
2022/12/21 06:32:43;;;;;;;8.20;2.15;;;;;;;;;;5100257;28;20031;-78
2022/12/21 06:35:10;;;;;;;6.93;2.50;;;;;;;;;;5103028;28;20063;-78
2022/12/21 06:37:37;;;;;;;8.90;2.85;;;;;;;;;;5099439;28;20024;-78
2022/12/21 06:40:03;;;;;;;7.30;2.55;;;;;;;;;;5096869;28;20028;-78
2022/12/21 06:42:29;;;;;;;3.70;2.20;;;;;;;;;;5100997;28;20110;-79
2022/12/21 06:44:55;;;;;;;5.22;3.15;;;;;;;;;;5109692;28;20032;-79
2022/12/21 06:47:22;;;;;;;10.13;3.28;;;;;;;;;;5106294;28;20034;-77
2022/12/21 06:49:48;;;;;;;9.10;3.10;;;;;;;;;;5097353;28;20562;-79
2022/12/21 06:52:14;;;;;;;5.75;3.38;;;;;;;;;;5108234;28;20047;-78
2022/12/21 06:54:40;;;;;;;7.82;3.15;;;;;;;;;;5101339;28;20042;-78
2022/12/21 06:57:06;;;;;;;7.80;2.60;;;;;;;;;;5115314;27;20081;-78
2022/12/21 06:59:35;;;;;;;6.10;2.72;;;;;;;;;;5099897;28;20020;-78
2022/12/21 07:02:02;;;;;;;8.18;2.53;;;;;;;;;;5102048;28;20089;-78
2022/12/21 07:04:28;;;;;;;6.53;2.40;;;;;;;;;;5105740;28;20031;-78
2022/12/21 07:06:56;;;;;;;5.40;2.17;;;;;;;;;;5106518;28;20507;-77
2022/12/21 07:09:22;;;;;;;9.30;2.53;;;;;;;;;;5104171;28;20075;-78
2022/12/21 07:11:52;;;;;;;8.63;2.42;;;;;;;;;;5100213;28;20033;-78
2022/12/21 07:14:21;;;;;;;10.65;2.50;;;;;;;;;;5097386;28;20021;-79
2022/12/21 07:16:47;;;;;;;11.77;2.67;;;;;;;;;;5098624;28;20040;-79
2022/12/21 07:19:13;;;;;;;15.52;2.78;;;;;;;;;;5092679;28;20043;-81
2022/12/21 07:21:39;;;;;;;6.15;2.20;;;;;;;;;;5099217;28;20033;-78
2022/12/21 07:24:06;;;;;;;8.00;2.63;;;;;;;;;;5102443;28;20027;-79
2022/12/21 07:26:32;;;;;;;11.45;2.83;;;;;;;;;;5103245;28;20028;-79
2022/12/21 07:28:58;;;;;;;11.18;2.67;;;;;;;;;;5093071;28;20028;-79
2022/12/21 07:31:26;;;;;;;8.60;2.33;;;;;;;;;;5083580;28;20488;-78
2022/12/21 07:33:52;;;;;;;11.88;2.45;;;;;;;;;;5065792;28;20108;-79
2022/12/21 07:36:20;;;;;;;8.63;2.70;;;;;;;;;;5090641;28;20455;-79
2022/12/21 07:38:46;;;;;;;6.22;2.15;;;;;;;;;;5093454;28;20057;-78
2022/12/21 07:41:16;;;;;;;6.10;2.35;;;;;;;;;;5092359;28;20058;-78
2022/12/21 07:43:43;;;;;;;8.35;2.83;;;;;;;;;;5085603;28;20028;-79
2022/12/21 07:46:10;;;;;;;5.40;2.30;;;;;;;;;;5089295;28;20027;-78
2022/12/21 07:48:36;;;;;;;5.72;2.15;;;;;;;;;;5082648;28;20044;-78
2022/12/21 07:51:04;;;;;;;8.60;2.75;;;;;;;;;;5099639;27;20122;-78
2022/12/21 07:53:31;;;;;;;9.68;4.15;;;;;;;;;;5078242;28;20098;-79
2022/12/21 07:56:01;;;;;;;12.38;3.10;;;;;;;;;;5081231;28;20020;-79
2022/12/21 07:58:27;;;;;;;9.07;2.80;;;;;;;;;;5088430;28;20024;-79
2022/12/21 08:00:53;;;;;;;8.93;2.85;;;;;;;;;;5083920;28;20020;-79
2022/12/21 08:03:19;;;;;;;8.48;2.78;;;;;;;;;;5086980;28;20096;-79
2022/12/21 08:05:45;;;;;;;4.82;2.30;;;;;;;;;;5093421;28;20020;-79
2022/12/21 08:08:11;;;;;;;13.73;3.38;;;;;;;;;;5086237;28;20029;-78
2022/12/21 08:10:39;;;;;;;5.40;2.35;;;;;;;;;;5100113;28;20032;-78
2022/12/21 08:13:05;;;;;;;9.88;2.83;;;;;;;;;;5093809;28;20039;-79
2022/12/21 08:15:31;;;;;;;10.82;4.50;;;;;;;;;;5094845;28;20028;-78
2022/12/21 08:17:58;;;;;;;5.05;2.13;;;;;;;;;;5099621;28;20477;-78
2022/12/21 08:20:24;;;;;;;7.53;2.70;;;;;;;;;;5089661;28;20130;-78
2022/12/21 08:22:50;;;;;;;8.55;3.00;;;;;;;;;;5096814;28;20574;-78
2022/12/21 08:25:16;;;;;;;6.40;2.70;;;;;;;;;;5088200;28;20059;-78
2022/12/21 08:27:42;;;;;;;10.73;3.55;;;;;;;;;;5082722;28;20040;-78
2022/12/21 08:30:09;;;;;;;6.45;2.40;;;;;;;;;;5085518;28;20055;-79
2022/12/21 08:32:35;;;;;;;10.13;4.55;;;;;;;;;;5091565;28;20389;-79
2022/12/21 08:35:01;;;;;;;7.22;2.42;;;;;;;;;;5089663;28;20143;-79
2022/12/21 08:37:27;;;;;;;6.45;2.90;;;;;;;;;;5089112;28;20054;-78
2022/12/21 08:39:55;;;;;;;6.60;3.13;;;;;;;;;;5336716;23;20064;-76
2022/12/21 08:42:22;;;;;;;7.38;2.97;;;;;;;;;;5053234;28;20033;-77
2022/12/21 08:44:48;;;;;;;6.38;2.78;;;;;;;;;;5054721;28;20029;-76
2022/12/21 08:47:17;;;;;;;6.45;2.60;;;;;;;;;;5048179;28;20021;-77
2022/12/21 08:49:43;;;;;;;9.85;2.83;;;;;;;;;;5065155;28;20071;-78
2022/12/21 08:52:09;;;;;;;11.02;2.90;;;;;;;;;;5072669;28;20020;-78
2022/12/21 08:54:35;;;;;;;11.32;2.83;;;;;;;;;;5066085;28;20021;-76
2022/12/21 08:57:01;;;;;;;11.70;3.20;;;;;;;;;;5057275;28;20550;-79
2022/12/21 08:59:28;;;;;;;9.25;2.38;;;;;;;;;;5062582;28;20027;-77
2022/12/21 09:01:54;;;;;;;5.47;2.42;;;;;;;;;;5058386;28;20529;-79
2022/12/21 09:04:24;;;;;;;13.18;4.07;;;;;;;;;;5048336;28;20017;-76
2022/12/21 09:06:50;;;;;;;25.75;3.10;;;;;;;;;;5053793;28;20029;-76
2022/12/21 09:09:16;;;;;;;8.10;2.80;;;;;;;;;;5057959;28;20050;-77
2022/12/21 09:11:46;;;;;;;8.20;2.95;;;;;;;;;;5049917;28;20028;-78
2022/12/21 09:14:12;;;;;;;5.68;2.28;;;;;;;;;;5047001;28;20025;-78
2022/12/21 09:16:38;;;;;;;5.40;2.75;;;;;;;;;;5045390;28;20463;-76
2022/12/21 09:19:09;;;;;;;9.20;2.53;;;;;;;;;;5053757;28;20026;-76
2022/12/21 09:21:37;;;;;;;5.93;2.40;;;;;;;;;;5049432;28;20079;-76
2022/12/21 09:24:06;;;;;;;10.77;2.78;;;;;;;;;;5049881;28;20029;-76
2022/12/21 09:26:32;;;;;;;11.80;2.42;;;;;;;;;;5048777;28;20458;-77
2022/12/21 09:28:59;;;;;;;8.50;2.35;;;;;;;;;;5055076;28;20521;-77
2022/12/21 09:31:28;;;;;;;7.80;2.50;;;;;;;;;;5056582;28;20025;-76
2022/12/21 09:33:54;;;;;;;8.43;2.40;;;;;;;;;;5053594;28;20029;-76
2022/12/21 09:36:21;;;;;;;12.43;5.10;;;;;;;;;;5059427;28;20056;-77
2022/12/21 09:38:47;;;;;;;8.88;2.63;;;;;;;;;;5061007;28;20364;-76
2022/12/21 09:41:29;;;;;;;9.93;3.20;;;;;;;;;;5055150;28;20041;-78
2022/12/21 09:44:08;;;;;;;9.20;2.50;;;;;;;;;;5066123;28;20037;-77
2022/12/21 09:46:36;;;;;;;9.32;4.22;;;;;;;;;;5038124;28;20076;-76
2022/12/21 09:49:15;;;;;;;4.85;2.33;;;;;;;;;;5047610;28;20033;-77
2022/12/21 09:51:47;;;;;;;5.38;2.35;;;;;;;;;;5049926;28;20029;-77
2022/12/21 09:54:16;;;;;;;6.45;2.55;;;;;;;;;;5059004;28;20021;-77
2022/12/21 09:56:46;;;;;;;6.97;2.80;;;;;;;;;;5066065;28;20467;-77
2022/12/21 09:59:31;;;;;;;9.73;2.28;;;;;;;;;;5052025;28;20017;-77
2022/12/21 10:02:07;;;;;;;8.32;2.70;;;;;;;;;;5049728;28;20022;-77
2022/12/21 10:04:42;;;;;;;3.58;2.20;;;;;;;;;;5048092;28;20037;-77
2022/12/21 10:07:37;;;;;;;14.30;3.35;;;;;;;;;;5051434;28;20461;-76
2022/12/21 10:10:15;;;;;;;5.45;2.28;;;;;;;;;;5054650;28;20048;-75
2022/12/21 10:12:42;;;;;;;6.22;2.25;;;;;;;;;;5051676;28;20022;-75
2022/12/21 10:15:37;;;;;;;7.75;2.90;;;;;;;;;;5043015;28;20037;-77
2022/12/21 10:18:09;;;;;;;8.20;2.45;;;;;;;;;;5044614;28;20546;-78
2022/12/21 10:20:54;;;;;;;9.82;2.80;;;;;;;;;;5050719;28;20084;-76
2022/12/21 10:23:20;;;;;;;10.00;3.28;;;;;;;;;;5050414;28;20065;-77
2022/12/21 10:25:48;;;;;;;6.28;2.58;;;;;;;;;;5047763;28;20022;-78
2022/12/21 10:28:20;;;;;;;8.45;2.95;;;;;;;;;;5053794;28;20033;-79
2022/12/21 10:30:51;;;;;;;7.07;3.05;;;;;;;;;;5058829;28;20036;-78
2022/12/21 10:33:21;;;;;;;10.50;3.67;;;;;;;;;;5055959;28;20017;-78
2022/12/21 10:35:47;;;;;;;9.18;3.08;;;;;;;;;;5055610;28;20036;-77
2022/12/21 10:38:15;;;;;;;8.80;3.20;;;;;;;;;;5056158;28;20025;-77
2022/12/21 10:40:42;;;;;;;8.30;3.08;;;;;;;;;;5054952;28;20064;-77
2022/12/21 10:43:09;;;;;;;6.22;2.58;;;;;;;;;;5055885;28;20029;-78
2022/12/21 10:45:36;;;;;;;9.35;2.70;;;;;;;;;;5058064;28;20017;-76
2022/12/21 10:48:02;;;;;;;9.25;3.08;;;;;;;;;;5051306;28;20061;-78
2022/12/21 10:50:29;;;;;;;6.22;2.50;;;;;;;;;;5058303;28;20059;-75
2022/12/21 10:52:56;;;;;;;10.45;2.50;;;;;;;;;;5059227;28;20067;-75
2022/12/21 10:55:22;;;;;;;6.68;2.70;;;;;;;;;;5049722;28;20482;-75
2022/12/21 10:57:50;;;;;;;14.98;3.53;;;;;;;;;;5056307;28;20111;-76
2022/12/21 11:00:33;;;;;;;6.40;2.80;;;;;;;;;;5057755;28;20029;-78
2022/12/21 11:03:00;;;;;;;13.88;2.83;;;;;;;;;;5065258;28;20028;-78
2022/12/21 11:05:28;;;;;;;8.85;3.72;;;;;;;;;;5069783;28;20025;-78
2022/12/21 11:08:09;;;;;;;9.77;2.85;;;;;;;;;;5068952;28;20034;-80
2022/12/21 11:10:36;;;;;;;14.18;3.75;;;;;;;;;;5063439;28;20089;-77
2022/12/21 11:13:05;;;;;;;11.20;2.70;;;;;;;;;;5064762;28;20527;-79
2022/12/21 11:15:31;;;;;;;8.13;3.10;;;;;;;;;;5061910;28;20020;-77
2022/12/21 11:17:57;;;;;;;11.80;4.38;;;;;;;;;;5061240;28;20029;-77
2022/12/21 11:20:24;;;;;;;8.95;3.13;;;;;;;;;;5056203;28;20374;-76
2022/12/21 11:22:51;;;;;;;10.82;3.22;;;;;;;;;;5059649;28;20025;-77
2022/12/21 11:25:19;;;;;;;8.65;2.70;;;;;;;;;;5063275;28;20021;-77
2022/12/21 11:27:46;;;;;;;8.57;3.63;;;;;;;;;;5059076;28;20055;-76
2022/12/21 11:30:22;;;;;;;12.75;4.25;;;;;;;;;;5061243;28;20025;-77
2022/12/21 11:32:50;;;;;;;15.82;3.63;;;;;;;;;;5063572;28;20026;-76
2022/12/21 11:35:19;;;;;;;12.98;3.65;;;;;;;;;;5055898;28;20025;-75
2022/12/21 11:37:46;;;;;;;12.10;3.30;;;;;;;;;;5055419;28;20041;-77
2022/12/21 11:40:13;;;;;;;10.73;3.13;;;;;;;;;;5047718;28;20052;-77
2022/12/21 11:42:58;;;;;;;10.27;3.60;;;;;;;;;;5050317;28;20021;-76
2022/12/21 11:45:27;;;;;;;9.32;3.47;;;;;;;;;;5050549;28;20017;-76
2022/12/21 11:48:03;;;;;;;12.35;4.18;;;;;;;;;;5051032;28;20029;-77
2022/12/21 11:50:35;;;;;;;12.00;3.33;;;;;;;;;;5051461;28;20021;-76
2022/12/21 11:53:11;;;;;;;12.30;5.20;;;;;;;;;;5055707;28;20356;-77
2022/12/21 11:55:48;;;;;;;14.98;3.75;;;;;;;;;;5052578;28;20032;-78
2022/12/21 11:58:14;;;;;;;12.40;3.50;;;;;;;;;;5051013;28;20108;-76
2022/12/21 12:00:50;;;;;;;11.43;3.10;;;;;;;;;;5050563;28;20056;-80
2022/12/21 12:03:28;;;;;;;14.25;3.03;;;;;;;;;;5051865;28;20029;-77
2022/12/21 12:06:13;;;;;;;7.90;3.88;;;;;;;;;;5054859;28;20040;-77
2022/12/21 12:08:39;;;;;;;7.45;2.60;;;;;;;;;;5053363;28;20491;-77
2022/12/21 12:11:15;;;;;;;10.88;3.28;;;;;;;;;;5053431;28;20095;-78
2022/12/21 12:13:52;;;;;;;7.18;2.83;;;;;;;;;;5045724;28;20576;-77
2022/12/21 12:16:24;;;;;;;12.10;3.88;;;;;;;;;;5050900;28;20547;-77
2022/12/21 12:18:56;;;;;;;10.23;3.53;;;;;;;;;;5060204;28;20033;-75
2022/12/21 12:21:22;;;;;;;7.45;2.65;;;;;;;;;;5060473;28;20443;-78
2022/12/21 12:24:01;;;;;;;12.32;3.40;;;;;;;;;;5055361;28;20043;-76
2022/12/21 12:26:27;;;;;;;7.80;2.90;;;;;;;;;;5054503;28;20051;-76
2022/12/21 12:28:59;;;;;;;12.25;4.40;;;;;;;;;;5062741;28;20021;-77
2022/12/21 12:31:41;;;;;;;10.98;4.07;;;;;;;;;;5061215;28;20031;-77
2022/12/21 12:34:21;;;;;;;11.40;3.75;;;;;;;;;;5060069;28;20025;-78
2022/12/21 12:37:05;;;;;;;10.63;4.78;;;;;;;;;;5058210;28;20471;-77
2022/12/21 12:39:44;;;;;;;11.73;3.40;;;;;;;;;;5052025;28;20069;-79
2022/12/21 12:42:34;;;;;;;7.18;3.58;;;;;;;;;;5050645;28;20090;-77
2022/12/21 12:45:32;;;;;;;11.27;3.60;;;;;;;;;;5041153;28;20033;-76
2022/12/21 12:48:01;;;;;;;11.35;3.35;;;;;;;;;;5021076;28;20398;-78
2022/12/21 12:50:30;;;;;;;9.75;2.92;;;;;;;;;;5051663;28;20029;-79
2022/12/21 12:53:13;;;;;;;10.68;3.80;;;;;;;;;;5060232;28;20037;-78
2022/12/21 12:55:43;;;;;;;9.57;3.45;;;;;;;;;;5053430;28;20089;-76
2022/12/21 12:58:27;;;;;;;11.13;4.68;;;;;;;;;;5056989;28;20471;-78
2022/12/21 13:01:03;;;;;;;12.38;3.45;;;;;;;;;;5056207;28;20021;-79
2022/12/21 13:03:38;;;;;;;13.75;3.78;;;;;;;;;;5049064;28;20064;-78
2022/12/21 13:06:21;;;;;;;9.25;2.78;;;;;;;;;;5048474;28;20089;-77
2022/12/21 13:08:47;;;;;;;9.68;3.50;;;;;;;;;;5062348;28;20025;-78
2022/12/21 13:11:24;;;;;;;13.15;3.90;;;;;;;;;;5061467;28;20051;-76
2022/12/21 13:14:12;;;;;;;8.73;3.47;;;;;;;;;;5054318;28;20502;-77
2022/12/21 13:16:57;;;;;;;14.10;3.30;;;;;;;;;;5057550;28;20025;-76
2022/12/21 13:19:25;;;;;;;9.65;3.47;;;;;;;;;;5052902;28;20021;-78
2022/12/21 13:21:53;;;;;;;9.85;3.45;;;;;;;;;;5054788;28;20032;-76
2022/12/21 13:24:25;;;;;;;12.93;3.33;;;;;;;;;;5063506;28;20037;-76
2022/12/21 13:26:53;;;;;;;8.55;3.35;;;;;;;;;;5059417;28;20076;-76
2022/12/21 13:29:27;;;;;;;13.65;3.83;;;;;;;;;;5052456;28;20562;-77
2022/12/21 13:31:59;;;;;;;9.27;3.25;;;;;;;;;;5059085;28;20080;-75
2022/12/21 13:34:25;;;;;;;10.25;3.80;;;;;;;;;;5063938;28;20078;-76
2022/12/21 13:36:51;;;;;;;9.20;4.45;;;;;;;;;;5066309;28;20029;-75
2022/12/21 13:39:32;;;;;;;10.40;3.92;;;;;;;;;;5065439;28;20045;-76
2022/12/21 13:42:03;;;;;;;9.13;3.10;;;;;;;;;;5070960;28;20024;-76
2022/12/21 13:44:34;;;;;;;13.40;4.85;;;;;;;;;;5057380;28;20014;-76
2022/12/21 13:47:02;;;;;;;8.20;3.00;;;;;;;;;;5049451;28;20112;-76
2022/12/21 13:49:39;;;;;;;8.02;3.45;;;;;;;;;;5051023;28;20037;-78
2022/12/21 13:52:09;;;;;;;9.57;3.58;;;;;;;;;;5063741;28;20033;-76
2022/12/21 13:54:52;;;;;;;9.32;3.40;;;;;;;;;;5062820;28;20036;-77
2022/12/21 13:57:21;;;;;;;15.57;3.70;;;;;;;;;;5062806;28;20044;-77
2022/12/21 13:59:55;;;;;;;7.15;2.80;;;;;;;;;;5057267;28;20010;-74
2022/12/21 14:02:46;;;;;;;14.55;4.22;;;;;;;;;;5064278;28;20036;-77
2022/12/21 14:05:36;;;;;;;13.07;3.67;;;;;;;;;;5065365;28;20020;-76
2022/12/21 14:08:12;;;;;;;9.05;4.20;;;;;;;;;;5061117;28;20029;-78
2022/12/21 14:10:50;;;;;;;9.40;3.53;;;;;;;;;;5066844;28;20104;-76
2022/12/21 14:13:16;;;;;;;9.88;4.10;;;;;;;;;;5060251;28;20048;-75
2022/12/21 14:15:45;;;;;;;12.32;4.20;;;;;;;;;;5065391;28;20618;-74
2022/12/21 14:18:14;;;;;;;8.52;3.50;;;;;;;;;;5062205;28;20029;-77
2022/12/21 14:20:41;;;;;;;10.90;3.55;;;;;;;;;;5058832;28;20059;-75
2022/12/21 14:23:15;;;;;;;14.02;4.75;;;;;;;;;;5075932;28;20021;-77
2022/12/21 14:25:46;;;;;;;17.10;8.30;;;;;;;;;;5067563;28;20039;-77
2022/12/21 14:28:18;;;;;;;15.57;4.47;;;;;;;;;;5053059;28;20061;-77
2022/12/21 14:30:54;;;;;;;18.50;4.50;;;;;;;;;;5064964;28;20028;-76
2022/12/21 14:33:28;;;;;;;13.23;5.28;;;;;;;;;;5064960;28;20108;-76
2022/12/21 14:36:12;;;;;;;9.88;4.38;;;;;;;;;;5061491;28;20040;-76
2022/12/21 14:38:38;;;;;;;14.10;4.32;;;;;;;;;;5065992;28;20441;-77
2022/12/21 14:41:10;;;;;;;15.15;6.45;;;;;;;;;;5068430;28;20106;-77
2022/12/21 14:43:58;;;;;;;15.40;7.80;;;;;;;;;;5069644;28;20035;-76
2022/12/21 14:46:26;;;;;;;18.35;10.90;;;;;;;;;;5068880;28;20023;-76
2022/12/21 14:49:03;;;;;;;15.23;9.32;;;;;;;;;;5072098;28;20048;-76
2022/12/21 14:51:33;;;;;;;17.67;13.18;;;;;;;;;;5071681;28;20006;-80
2022/12/21 14:54:00;;;;;;;12.18;4.72;;;;;;;;;;5054294;28;20029;-79
2022/12/21 14:56:27;;;;;;;20.73;17.10;;;;;;;;;;5067320;28;20025;-77
2022/12/21 14:58:58;;;;;;;12.98;9.07;;;;;;;;;;5051014;28;20077;-76
2022/12/21 15:01:33;;;;;;;20.88;14.65;;;;;;;;;;5052175;28;20025;-76
2022/12/21 15:04:01;;;;;;;13.02;6.85;;;;;;;;;;5066170;28;20430;-76
2022/12/21 15:06:29;;;;;;;26.33;15.38;;;;;;;;;;5062961;28;20034;-76